Date,TemperatureHighF,TemperatureAvgF,TemperatureLowF,DewpointHighF,DewpointAvgF,DewpointLowF,HumidityHigh,HumidityAvg,HumidityLow,PressureMaxIn,PressureMinIn,WindSpeedMaxMPH,WindSpeedAvgMPH,GustSpeedMaxMPH,PrecipitationSumIn
2014-1-1,55,40,30,41,31,26,86,71,45,30.16,29.92,0,-999,0,0.00
2014-1-2,47,44,34,44,38,19,90,82,55,29.93,29.46,0,-999,0,0.26
2014-1-3,55,33,21,22,14,8,70,48,22,30.22,29.69,0,-999,0,0.01
2014-1-4,38,29,17,22,17,11,81,63,47,30.27,30.03,0,-999,0,0.00
2014-1-5,43,38,34,39,33,22,90,82,59,30.03,29.56,0,-999,0,0.08
2014-1-6,53,36,14,42,21,-4,91,58,27,30.07,29.49,0,-999,0,0.08
2014-1-7,46,22,8,13,3,-4,65,45,22,30.26,30.06,0,-999,0,0.00
2014-1-8,64,32,13,27,13,7,77,51,17,30.34,30.23,0,-999,0,0.00
2014-1-9,67,39,21,34,21,14,77,54,21,30.32,30.21,0,-999,0,0.04
2014-1-10,48,43,38,45,39,30,91,86,67,30.22,29.85,0,-999,0,0.67
2014-1-11,60,52,45,58,48,37,93,87,56,29.85,29.44,0,-999,0,3.06
2014-1-12,78,50,32,45,34,27,85,58,25,29.96,29.61,0,-999,0,0.00
2014-1-13,66,45,31,43,34,26,87,68,38,29.95,29.72,0,-999,0,0.16
2014-1-14,78,52,34,56,40,27,89,68,25,29.76,29.60,0,-999,0,0.12
2014-1-15,70,43,30,45,30,23,85,64,34,29.75,29.64,0,-999,0,0.00
2014-1-16,60,38,22,35,20,15,81,53,24,29.85,29.72,0,-999,0,0.00
2014-1-17,61,40,25,33,21,15,72,48,28,29.81,29.63,0,-999,0,0.00
2014-1-18,55,37,24,21,14,9,61,41,23,29.91,29.73,0,-999,0,0.00
2014-1-19,71,45,26,31,23,15,64,43,22,29.79,29.72,0,-999,0,0.00
2014-1-20,74,51,28,35,26,19,73,42,19,29.74,29.61,0,-999,0,0.00
2014-1-21,71,46,30,37,25,14,65,46,22,29.68,29.36,0,-999,0,0.00
2014-1-22,58,35,20,14,6,-1,56,33,12,29.86,29.67,0,-999,0,0.00
2014-1-23,58,32,17,19,8,2,68,40,17,30.20,29.86,0,-999,0,0.00
2014-1-24,52,27,11,10,-1,-8,49,31,12,30.40,30.03,0,-999,0,0.00
2014-1-25,44,30,18,17,8,-2,48,38,24,30.03,29.52,0,-999,0,0.00
2014-1-26,61,44,24,30,23,14,69,46,27,29.75,29.64,0,-999,0,0.00
2014-1-27,76,54,39,40,31,17,59,43,24,29.82,29.61,0,-999,0,0.00
2014-1-28,39,32,24,20,13,5,78,49,27,30.04,29.81,0,-999,0,0.00
2014-1-29,26,20,15,17,8,6,73,60,48,30.12,29.97,0,-999,0,0.06
2014-1-30,59,29,10,25,11,3,75,52,20,30.16,29.98,0,-999,0,0.00
2014-1-31,72,37,16,32,14,8,74,46,12,30.01,29.89,0,-999,0,0.06